Latest Weather Observations for Marble Bar

IDW60801

Issued at 1:02 pm WST Saturday 28 March 2015 (issued every 30 minutes, with the page automatically refreshed every 10 minutes)

About weather observations | Map of weather stations | Latest weather observations for WA | Other Formats
Station Details ID: 004106 Name: MARBLE BAR Lat: -21.18 Lon: 119.75 Height: 182.3 m
Data from the previous 72 hours. | See also: Recent months at Marble Bar
Date/Time
WST
Temp
°C
App
Temp
°C
Dew
Point
Rel
Hum
%
Delta-T
°C
Wind Press
QNH
hPa
Press
MSL
hPa
Rain
since 9 am
mm
Dir
 
Spd
km/h
Gust
km/h
Spd
kts
Gust
kts
28/01:00pm 36.1 33.0 8.8 19 15.7 ENE 15 22 8 12 1013.1 1011.7 0.0
28/12:30pm 35.8 33.4 10.1 21 15.0 E 13 24 7 13 1013.5 1012.1 0.0
28/12:00pm 35.5 32.3 9.8 21 15.0 E 17 28 9 15 1014.0 1012.6 0.0
28/11:30am 34.9 31.7 10.0 22 14.5 E 17 30 9 16 1014.5 1013.1 0.0
28/11:00am 34.9 31.5 10.7 23 14.2 E 19 32 10 17 1015.0 1013.6 0.0
28/10:30am 33.8 30.7 11.6 26 13.2 E 19 33 10 18 1015.3 1013.9 0.0
28/10:00am 32.3 29.0 11.5 28 12.2 ESE 20 33 11 18 1015.6 1014.2 0.0
28/09:30am 31.7 28.7 12.0 30 11.7 SE 19 28 10 15 1015.6 1014.2 0.0
28/09:00am 30.5 27.1 12.4 33 10.7 SE 22 30 12 16 1015.8 1014.4 0.0
28/08:30am 29.7 26.7 12.6 35 10.1 SE 20 28 11 15 1015.8 1014.4 0.0
28/08:00am 27.6 24.7 12.8 40 8.7 ESE 20 28 11 15 1015.7 1014.3 0.0
28/07:30am 26.9 26.7 14.6 46 7.4 SSE 9 17 5 9 1015.5 1014.1 0.0
28/07:00am 25.6 25.8 14.7 51 6.6 SE 7 9 4 5 1015.5 1014.1 0.0
28/06:30am 23.7 24.1 15.2 59 5.1 SSE 7 7 4 4 1015.3 1013.9 0.0
28/06:00am 23.0 23.6 15.3 62 4.6 SE 6 7 3 4 1015.2 1013.8 0.0
28/05:30am 23.2 24.2 15.3 61 4.8 SSE 4 4 2 2 1015.1 1013.7 0.0
28/05:00am 23.8 24.0 14.8 57 5.4 SSE 7 9 4 5 1014.9 1013.5 0.0
28/04:30am 24.2 24.4 14.6 55 5.7 SE 7 9 4 5 1014.8 1013.4 0.0
28/04:00am 24.8 24.8 14.3 52 6.3 SSE 7 9 4 5 1014.7 1013.3 0.0
28/03:30am 25.1 24.8 14.3 51 6.5 SSE 9 13 5 7 1014.3 1012.9 0.0
28/03:00am 25.2 24.9 14.3 50 6.5 SSE 9 13 5 7 1014.6 1013.2 0.0
28/02:30am 25.4 25.0 14.2 50 6.7 SSE 9 11 5 6 1014.7 1013.3 0.0
28/02:00am 25.4 25.5 14.5 51 6.5 SE 7 11 4 6 1014.7 1013.3 0.0
28/01:30am 25.3 25.5 14.7 51 6.4 SSE 7 9 4 5 1015.1 1013.7 0.0
28/01:00am 26.1 26.1 14.2 48 7.1 S 7 11 4 6 1015.1 1013.7 0.0
28/12:30am 26.3 26.3 14.1 47 7.3 SSE 7 11 4 6 1015.3 1013.9 0.0
28/12:00am 27.1 25.8 13.8 44 7.9 S 13 17 7 9 1015.7 1014.3 0.0
 
Date/Time
WST
Temp
°C
App
Temp
°C
Dew
Point
Rel
Hum
%
Delta-T
°C
Wind Press
QNH
hPa
Press
MSL
hPa
Rain
since 9 am
mm
Dir
 
Spd
km/h
Gust
km/h
Spd
kts
Gust
kts
27/11:30pm 27.2 26.4 13.9 44 8.0 SSE 11 19 6 10 1015.9 1014.5 0.0
27/11:00pm 27.6 25.9 13.5 41 8.4 SSE 15 20 8 11 1015.8 1014.4 0.0
27/10:30pm 27.7 25.9 13.3 41 8.6 S 15 20 8 11 1016.0 1014.6 0.0
27/10:00pm 27.9 26.0 13.1 40 8.8 S 15 24 8 13 1016.2 1014.8 0.0
27/09:30pm 28.2 26.8 13.3 40 8.9 S 13 20 7 11 1016.2 1014.8 0.0
27/09:00pm 28.4 26.9 13.1 39 9.1 S 13 17 7 9 1016.1 1014.7 0.0
27/08:30pm 28.9 26.2 12.8 37 9.5 SSW 19 28 10 15 1016.1 1014.7 0.0
27/08:00pm 29.5 26.1 12.4 35 10.1 SSW 22 30 12 16 1015.2 1013.8 0.0
27/07:30pm 30.2 26.1 12.6 34 10.5 S 26 35 14 19 1014.4 1013.0 0.0
27/07:00pm 31.3 28.3 13.6 34 10.7 SSW 22 35 12 19 1014.1 1012.7 0.0
27/06:47pm 32.0 32.0 14.2 34 10.9 S 7 35 4 19 1013.6 1012.2 0.0
27/06:30pm 32.6 34.8 16.4 37 10.3 CALM 0 0 0 0 1012.7 1011.3 0.0
27/06:00pm 33.8 35.7 15.7 33 11.4 CALM 0 0 0 0 1012.3 1010.9 0.0
27/05:30pm 35.1 34.8 11.5 24 14.1 ENE 4 4 2 2 1012.1 1010.6 0.0
27/05:00pm 35.9 35.0 11.5 23 14.6 E 7 11 4 6 1012.0 1010.5 0.0
27/04:30pm 35.7 35.0 12.0 24 14.3 ENE 7 11 4 6 1012.0 1010.5 0.0
27/04:00pm 36.1 34.9 11.7 23 14.7 E 9 15 5 8 1011.8 1010.4 0.0
27/03:30pm 37.3 34.7 10.6 20 15.8 E 15 20 8 11 1011.7 1010.3 0.0
27/03:00pm 37.6 36.0 11.5 21 15.7 E 11 19 6 10 1012.2 1010.8 0.0
27/02:30pm 38.5 37.3 11.5 20 16.3 NE 9 20 5 11 1012.2 1010.8 0.0
27/02:00pm 37.9 36.2 12.5 22 15.5 NNE 13 19 7 10 1012.4 1011.0 0.0
27/01:30pm 37.9 36.8 13.2 23 15.2 ENE 11 22 6 12 1012.8 1011.4 0.0
27/01:00pm 37.1 36.4 13.2 24 14.7 E 9 17 5 9 1013.2 1011.8 0.0
27/12:30pm 36.7 34.7 12.8 24 14.6 ENE 15 22 8 12 1013.8 1012.4 0.0
27/12:00pm 36.2 34.7 13.0 24 14.2 NE 13 24 7 13 1014.3 1012.9 0.0
27/11:30am 35.7 34.4 13.8 27 13.5 NE 13 22 7 12 1014.9 1013.5 0.0
27/11:00am 34.9 33.2 13.7 28 13.0 NE 15 28 8 15 1015.4 1014.0 0.0
27/10:30am 34.8 33.5 13.6 28 13.0 ENE 13 20 7 11 1015.8 1014.4 0.0
27/10:00am 33.9 32.9 13.4 29 12.5 E 11 17 6 9 1016.1 1014.7 0.0
27/09:30am 32.9 31.8 13.0 30 12.0 ESE 11 19 6 10 1016.3 1014.9 0.0
27/09:00am 31.8 29.4 12.6 31 11.5 ESE 17 24 9 13 1016.5 1015.1 0.0
27/08:30am 30.8 29.2 12.7 33 10.8 SE 13 19 7 10 1016.9 1015.5 0.0
27/08:00am 29.1 27.0 12.5 36 9.8 SSE 15 20 8 11 1016.9 1015.5 0.0
27/07:30am 28.3 27.3 13.4 40 8.9 SSE 11 19 6 10 1016.7 1015.3 0.0
27/07:00am 26.7 26.1 13.4 43 7.9 S 9 13 5 7 1016.4 1015.0 0.0
27/06:30am 24.7 24.8 13.9 51 6.4 SSE 6 9 3 5 1016.3 1014.9 0.0
27/06:00am 25.1 24.6 12.7 46 7.2 SSE 7 9 4 5 1016.2 1014.8 0.0
27/05:30am 25.6 25.0 12.4 43 7.7 S 7 13 4 7 1015.9 1014.5 0.0
27/05:00am 25.4 25.0 12.9 45 7.3 S 7 9 4 5 1015.8 1014.4 0.0
27/04:30am 26.4 25.9 12.5 42 8.1 SSE 7 13 4 7 1015.6 1014.2 0.0
27/04:00am 27.0 25.6 12.3 40 8.6 SSE 11 19 6 10 1015.4 1014.0 0.0
27/03:30am 27.3 26.0 12.5 40 8.7 S 11 15 6 8 1015.3 1013.9 0.0
27/03:00am 27.9 25.1 12.7 39 9.0 SSE 19 26 10 14 1015.0 1013.6 0.0
27/02:30am 28.0 25.6 12.8 39 9.0 S 17 26 9 14 1015.0 1013.6 0.0
27/02:00am 28.5 26.0 12.4 37 9.5 S 17 24 9 13 1015.2 1013.8 0.0
27/01:30am 29.0 26.5 12.4 36 9.8 S 17 24 9 13 1015.3 1013.9 0.0
27/01:00am 29.0 28.1 13.6 38 9.2 SSW 11 17 6 9 1015.5 1014.1 0.0
27/12:30am 28.9 27.6 13.6 39 9.2 SW 13 24 7 13 1015.6 1014.2 0.0
27/12:00am 29.0 28.8 13.6 38 9.2 SE 7 9 4 5 1015.4 1014.0 0.0
 
Date/Time
WST
Temp
°C
App
Temp
°C
Dew
Point
Rel
Hum
%
Delta-T
°C
Wind Press
QNH
hPa
Press
MSL
hPa
Rain
since 9 am
mm
Dir
 
Spd
km/h
Gust
km/h
Spd
kts
Gust
kts
26/11:30pm 30.2 28.7 13.0 34 10.3 SSE 13 19 7 10 1015.4 1014.0 0.0
26/11:00pm 30.2 29.0 13.9 37 9.9 SSE 13 20 7 11 1015.7 1014.3 0.0
26/10:30pm 30.2 29.0 13.9 37 9.9 S 13 19 7 10 1015.6 1014.2 0.0
26/10:00pm 29.0 29.1 14.4 41 8.9 SE 7 9 4 5 1015.4 1014.0 0.0
26/09:30pm 28.5 29.4 16.7 48 7.4 SSE 7 7 4 4 1015.4 1014.0 0.0
26/09:00pm 28.8 30.4 17.0 49 7.5 SSE 4 6 2 3 1015.2 1013.8 0.0
26/08:30pm 29.2 30.3 17.1 48 7.7 SSE 7 9 4 5 1015.1 1013.7 0.0
26/08:00pm 29.9 31.3 17.4 47 8.0 SSE 6 7 3 4 1014.8 1013.4 0.0
26/07:30pm 30.7 32.0 17.0 43 8.7 SSE 6 6 3 3 1014.5 1013.1 0.0
26/07:00pm 31.5 32.2 15.5 38 10.0 SSE 6 6 3 3 1014.1 1012.7 0.0
26/06:30pm 32.7 33.3 14.3 32 11.3 SE 4 4 2 2 1013.9 1012.5 0.0
26/06:00pm 34.0 34.0 13.5 29 12.5 SE 6 6 3 3 1013.6 1012.2 0.0
26/05:30pm 35.4 34.4 11.1 23 14.4 SE 7 9 4 5 1013.5 1012.1 0.0
26/05:00pm 36.4 34.7 11.3 22 15.0 SE 11 15 6 8 1013.2 1011.8 0.0
26/04:30pm 36.2 34.5 11.1 22 14.9 SE 11 17 6 9 1013.1 1011.7 0.0
26/04:00pm 36.7 34.9 10.8 21 15.4 ESE 11 15 6 8 1013.0 1011.6 0.0
26/03:30pm 36.6 35.5 10.7 21 15.3 ENE 7 15 4 8 1013.0 1011.6 0.0
26/03:00pm 37.4 36.7 11.4 21 15.6 ENE 6 13 3 7 1013.2 1011.8 0.0
26/02:30pm 37.1 35.4 11.1 21 15.5 ESE 11 19 6 10 1013.3 1011.9 0.0
26/02:00pm 37.0 35.3 11.1 21 15.5 E 11 20 6 11 1013.5 1012.1 0.0
26/01:30pm 37.1 35.8 11.1 21 15.5 E 9 20 5 11 1013.7 1012.3 0.0
26/01:00pm 37.2 34.9 10.5 20 15.8 ESE 13 24 7 13 1014.2 1012.8 0.0
26/12:30pm 36.2 32.8 10.4 21 15.2 E 19 30 10 16 1014.6 1013.2 0.0
26/12:00pm 36.0 32.5 10.2 21 15.1 E 19 28 10 15 1015.1 1013.7 0.0
26/11:30am 35.1 32.0 10.2 22 14.6 ESE 17 30 9 16 1015.5 1014.1 0.0
26/11:00am 34.2 30.5 10.1 23 14.0 E 20 28 11 15 1016.2 1014.8 0.0
26/10:30am 33.4 30.2 10.1 24 13.5 E 17 32 9 17 1016.6 1015.2 0.0
26/10:00am 32.9 29.3 9.7 24 13.3 E 19 26 10 14 1016.9 1015.5 0.0
26/09:30am 31.8 28.6 9.9 26 12.6 ESE 17 28 9 15 1017.2 1015.9 0.0
26/09:00am 31.1 27.7 10.4 28 11.9 ESE 19 24 10 13 1017.5 1016.2 0.0
26/08:30am 29.9 26.3 9.9 29 11.4 ESE 19 32 10 17 1017.5 1016.2 0.0
26/08:00am 28.5 24.7 9.7 31 10.6 SE 20 28 11 15 1017.4 1016.1 0.0
26/07:30am 28.1 25.8 10.3 33 10.1 SE 13 19 7 10 1017.1 1015.8 0.0
26/07:00am 26.9 25.1 11.0 37 9.1 SSE 11 17 6 9 1016.7 1015.3 0.0
26/06:30am 25.4 24.2 11.6 42 7.9 SSE 9 11 5 6 1016.4 1015.0 0.0
26/06:00am 25.7 24.5 11.5 41 8.1 SSE 9 15 5 8 1016.1 1014.7 0.0
26/05:30am 25.9 24.7 11.6 40 8.2 SSE 9 15 5 8 1015.7 1014.3 0.0
26/05:00am 26.1 24.1 11.5 40 8.4 SE 13 17 7 9 1015.2 1013.8 0.0
26/04:30am 26.3 24.7 11.6 40 8.4 SE 11 17 6 9 1014.8 1013.4 0.0
26/04:00am 26.9 24.2 11.8 39 8.7 SE 17 24 9 13 1014.5 1013.1 0.0
26/03:30am 27.4 24.4 11.8 38 9.0 SE 19 24 10 13 1014.4 1013.0 0.0
26/03:00am 27.0 25.3 12.3 40 8.6 SE 13 19 7 10 1014.4 1013.0 0.0
26/02:30am 27.4 25.2 12.2 39 8.9 SE 15 22 8 12 1014.3 1012.9 0.0
26/02:00am 27.6 25.5 12.4 39 8.9 SE 15 20 8 11 1014.2 1012.8 0.0
26/01:30am 27.8 25.8 12.6 39 8.9 SE 15 19 8 10 1014.3 1012.9 0.0
26/01:00am 28.6 25.6 12.1 36 9.7 SE 19 24 10 13 1014.4 1013.0 0.0
26/12:30am 28.4 26.4 12.7 38 9.3 SE 15 20 8 11 1014.5 1013.1 0.0
26/12:00am 27.7 26.7 13.3 41 8.6 SE 11 15 6 8 1014.5 1013.1 0.0
 
Date/Time
WST
Temp
°C
App
Temp
°C
Dew
Point
Rel
Hum
%
Delta-T
°C
Wind Press
QNH
hPa
Press
MSL
hPa
Rain
since 9 am
mm
Dir
 
Spd
km/h
Gust
km/h
Spd
kts
Gust
kts
25/11:30pm 28.6 26.7 12.9 38 9.3 SE 15 20 8 11 1014.5 1013.1 0.0
25/11:00pm 27.6 27.1 14.9 45 7.7 SE 11 15 6 8 1014.6 1013.2 0.0
25/10:30pm 27.3 28.2 16.6 52 6.7 SE 7 9 4 5 1014.7 1013.3 0.0
25/10:00pm 27.2 31.2 20.5 67 4.4 CALM 0 6 0 3 1014.7 1013.3 0.0
25/09:30pm 28.1 31.1 19.3 58 5.7 SSE 2 4 1 2 1014.8 1013.4 0.0
25/09:00pm 28.6 31.6 18.4 54 6.6 CALM 0 4 0 2 1014.6 1013.2 0.0
25/08:30pm 28.7 31.9 18.8 55 6.4 CALM 0 0 0 0 1014.4 1013.0 0.0
25/08:00pm 29.4 32.2 17.9 50 7.4 CALM 0 2 0 1 1013.9 1012.5 0.0
25/07:30pm 29.7 31.3 16.8 45 8.2 SSE 4 4 2 2 1013.6 1012.2 0.0
25/07:00pm 30.5 31.1 15.4 40 9.4 SSE 6 6 3 3 1013.3 1011.9 0.0
25/06:30pm 32.1 31.6 12.8 30 11.6 SSE 7 9 4 5 1013.0 1011.6 0.0
25/06:00pm 33.9 32.2 11.1 25 13.4 SE 11 17 6 9 1012.7 1011.3 0.0
25/05:30pm 35.2 32.7 10.9 23 14.4 SE 15 33 8 18 1012.6 1011.2 0.0
25/05:00pm 35.8 33.8 11.4 23 14.6 SE 13 19 7 10 1012.4 1011.0 0.0
25/04:30pm 36.0 34.4 11.6 23 14.6 E 11 20 6 11 1012.2 1010.8 0.0
25/04:00pm 36.2 33.9 11.8 23 14.7 ESE 15 24 8 13 1012.4 1011.0 0.0
25/03:30pm 36.3 34.2 11.2 22 15.0 SE 13 22 7 12 1012.4 1011.0 0.0
25/03:00pm 36.2 34.3 11.8 23 14.7 ESE 13 20 7 11 1012.4 1011.0 0.0
25/02:30pm 36.2 34.7 11.8 23 14.7 E 11 24 6 13 1012.5 1011.1 0.0
25/02:00pm 35.9 33.4 10.9 22 14.8 SE 15 28 8 15 1012.8 1011.4 0.0
25/01:30pm 35.6 32.2 11.3 23 14.5 SE 20 28 11 15 1013.2 1011.8 0.0

Other Formats:

Comma delimited format used in spreadsheet applications
http://www.bom.gov.au/fwo/IDW60801/IDW60801.95317.axf

JavaScript Object Notation format (JSON) in row-major order
http://www.bom.gov.au/fwo/IDW60801/IDW60801.95317.json